createdAt,value
2018-07-04T00:02:27.455Z,17.68
2018-07-04T00:05:12.356Z,17.66
2018-07-04T00:07:57.436Z,17.66
2018-07-04T00:10:42.386Z,17.63
2018-07-04T00:13:27.528Z,17.61
2018-07-04T00:16:12.517Z,17.57
2018-07-04T00:18:57.642Z,17.55
2018-07-04T00:21:42.510Z,17.53
2018-07-04T00:24:27.770Z,17.49
2018-07-04T00:27:12.693Z,17.47
2018-07-04T00:29:57.934Z,17.44
2018-07-04T00:32:42.757Z,17.42
2018-07-04T00:35:27.826Z,17.39
2018-07-04T00:38:12.776Z,17.35
2018-07-04T00:40:57.773Z,17.34
2018-07-04T00:43:42.824Z,17.31
2018-07-04T00:46:27.877Z,17.27
2018-07-04T00:49:12.797Z,17.24
2018-07-04T00:51:57.817Z,17.20
2018-07-04T00:54:42.868Z,17.15
2018-07-04T00:57:27.930Z,17.13
2018-07-04T01:00:12.873Z,17.10
2018-07-04T01:02:57.825Z,17.07
2018-07-04T01:05:42.628Z,17.05
2018-07-04T01:08:27.575Z,17.03
2018-07-04T01:11:12.446Z,17.00
2018-07-04T01:13:57.481Z,16.98
2018-07-04T01:16:42.295Z,16.94
2018-07-04T01:19:27.780Z,16.90
2018-07-04T01:22:12.789Z,16.87
2018-07-04T01:24:57.801Z,16.83
2018-07-04T01:27:42.641Z,16.79
2018-07-04T01:30:27.709Z,16.76
2018-07-04T01:33:12.619Z,16.73
2018-07-04T01:35:57.748Z,16.70
2018-07-04T01:38:42.624Z,16.67
2018-07-04T01:41:27.497Z,16.63
2018-07-04T01:44:13.482Z,16.60
2018-07-04T01:46:58.585Z,16.58
2018-07-04T01:49:43.597Z,16.55
2018-07-04T01:52:28.595Z,16.51
2018-07-04T01:55:13.546Z,16.48
2018-07-04T01:57:59.267Z,16.44
2018-07-04T02:00:44.219Z,16.40
2018-07-04T02:03:29.185Z,16.36
2018-07-04T02:06:14.051Z,16.33
2018-07-04T02:08:59.374Z,15.58
2018-07-04T02:11:44.447Z,16.29
2018-07-04T02:14:29.356Z,16.28
2018-07-04T02:17:14.371Z,16.26
2018-07-04T02:19:59.388Z,16.23
2018-07-04T02:22:44.393Z,16.21
2018-07-04T02:25:29.446Z,16.19
2018-07-04T02:28:14.194Z,16.17
2018-07-04T02:30:59.456Z,16.14
2018-07-04T02:33:44.196Z,16.12
2018-07-04T02:36:29.324Z,16.11
2018-07-04T02:39:14.395Z,16.10
2018-07-04T02:42:00.501Z,16.08
2018-07-04T02:44:45.405Z,16.08
2018-07-04T02:47:30.349Z,16.07
2018-07-04T02:50:15.286Z,16.04
2018-07-04T02:53:00.318Z,16.03
2018-07-04T02:55:45.044Z,16.03
2018-07-04T02:58:30.398Z,16.01
2018-07-04T03:01:15.212Z,14.89
2018-07-04T03:04:00.213Z,15.99
2018-07-04T03:06:45.319Z,15.99
2018-07-04T03:09:30.389Z,15.97
2018-07-04T03:12:15.221Z,15.96
2018-07-04T03:15:00.318Z,15.95
2018-07-04T03:17:45.136Z,15.94
2018-07-04T03:20:30.280Z,15.94
2018-07-04T03:23:15.041Z,15.95
2018-07-04T03:26:00.071Z,15.96
2018-07-04T03:28:44.893Z,15.96
2018-07-04T03:31:30.567Z,15.95
2018-07-04T03:34:15.325Z,15.96
2018-07-04T03:37:00.305Z,15.97
2018-07-04T03:39:45.260Z,15.98
2018-07-04T03:42:30.459Z,16.01
2018-07-04T03:45:15.211Z,16.02
2018-07-04T03:48:00.610Z,16.02
2018-07-04T03:50:45.704Z,16.03
2018-07-04T03:53:30.668Z,16.05
2018-07-04T03:56:15.790Z,16.06
2018-07-04T03:59:00.734Z,16.07
2018-07-04T04:01:45.870Z,16.09
2018-07-04T04:04:30.679Z,16.11
2018-07-04T04:07:15.809Z,16.12
2018-07-04T04:10:00.798Z,16.14
2018-07-04T04:12:45.834Z,16.16
2018-07-04T04:15:30.845Z,16.18
2018-07-04T04:18:15.890Z,16.20
2018-07-04T04:21:00.819Z,16.21
2018-07-04T04:23:45.755Z,16.21
2018-07-04T04:26:30.544Z,16.23
2018-07-04T04:29:15.924Z,16.25
2018-07-04T04:32:00.731Z,16.27
2018-07-04T04:34:46.352Z,16.30
2018-07-04T04:37:31.362Z,16.33
2018-07-04T04:40:16.458Z,16.36
2018-07-04T04:43:01.379Z,16.37
2018-07-04T04:45:46.595Z,16.39
2018-07-04T04:48:31.422Z,16.42
2018-07-04T04:51:16.613Z,16.44
2018-07-04T04:54:01.556Z,16.47
2018-07-04T04:56:46.533Z,16.52
2018-07-04T04:59:31.545Z,16.54
2018-07-04T05:02:16.551Z,16.58
2018-07-04T05:05:01.299Z,16.60
2018-07-04T05:07:46.377Z,16.64
2018-07-04T05:10:31.799Z,16.67
2018-07-04T05:13:16.848Z,16.69
2018-07-04T05:16:01.725Z,16.71
2018-07-04T05:18:46.763Z,16.76
2018-07-04T05:21:31.814Z,16.78
2018-07-04T05:24:16.705Z,16.83
2018-07-04T05:27:01.645Z,16.88
2018-07-04T05:29:46.780Z,16.92
2018-07-04T05:32:31.846Z,16.97
2018-07-04T05:35:16.882Z,16.30
2018-07-04T05:38:01.747Z,17.05
2018-07-04T05:40:46.794Z,17.10
2018-07-04T05:43:31.614Z,17.14
2018-07-04T05:46:16.799Z,17.19
2018-07-04T05:49:01.714Z,17.25
2018-07-04T05:51:47.017Z,17.30
2018-07-04T05:54:31.861Z,17.35
2018-07-04T05:57:16.928Z,17.42
2018-07-04T06:00:02.055Z,17.46
2018-07-04T06:02:47.007Z,17.50
2018-07-04T06:05:32.045Z,17.55
2018-07-04T06:08:17.123Z,17.61
2018-07-04T06:11:01.964Z,17.65
2018-07-04T06:13:47.238Z,17.69
2018-07-04T06:16:32.101Z,17.73
2018-07-04T06:19:17.137Z,17.77
2018-07-04T06:22:02.738Z,17.83
2018-07-04T06:24:48.146Z,17.87
2018-07-04T06:27:34.086Z,17.91
2018-07-04T06:30:19.172Z,17.94
2018-07-04T06:33:04.208Z,17.96
2018-07-04T06:35:49.199Z,18.02
2018-07-04T06:38:21.642Z,18.05
2018-07-04T06:40:48.069Z,18.10
2018-07-04T06:43:14.973Z,18.14
2018-07-04T06:45:41.358Z,18.18
2018-07-04T06:48:07.819Z,18.23
2018-07-04T06:50:34.603Z,18.27
2018-07-04T06:53:01.002Z,18.30
2018-07-04T06:55:27.434Z,18.34
2018-07-04T06:57:54.078Z,18.37
2018-07-04T07:00:20.642Z,18.42
2018-07-04T07:02:47.057Z,18.45
2018-07-04T07:05:32.018Z,18.50
2018-07-04T07:08:16.930Z,18.53
2018-07-04T07:11:01.844Z,18.55
2018-07-04T07:13:46.818Z,18.59
2018-07-04T07:16:31.921Z,18.64
2018-07-04T07:19:16.882Z,18.69
2018-07-04T07:22:01.815Z,18.72
2018-07-04T07:24:46.858Z,18.77
2018-07-04T07:27:31.669Z,18.80
2018-07-04T07:30:16.459Z,18.84
2018-07-04T07:33:01.462Z,18.89
2018-07-04T07:35:46.422Z,18.96
2018-07-04T07:38:31.687Z,19.01
2018-07-04T07:41:16.558Z,19.04
2018-07-04T07:44:01.692Z,19.08
2018-07-04T07:46:47.448Z,19.11
2018-07-04T07:49:32.513Z,19.16
2018-07-04T07:52:17.354Z,19.22
2018-07-04T07:55:02.257Z,19.29
2018-07-04T07:57:46.974Z,19.35
2018-07-04T08:00:32.203Z,19.42
2018-07-04T08:03:17.320Z,19.49
2018-07-04T08:06:02.544Z,19.57
2018-07-04T08:08:47.547Z,19.62
2018-07-04T08:11:32.862Z,19.67
2018-07-04T08:14:17.730Z,19.70
2018-07-04T08:17:02.857Z,19.76
2018-07-04T08:19:47.644Z,19.80
2018-07-04T08:22:32.544Z,19.85
2018-07-04T08:25:17.654Z,19.88
2018-07-04T08:28:02.565Z,19.90
2018-07-04T08:30:47.536Z,19.93
2018-07-04T08:33:32.506Z,20.01
2018-07-04T08:36:17.419Z,20.11
2018-07-04T08:39:02.592Z,20.18
2018-07-04T08:41:47.423Z,20.25
2018-07-04T08:44:32.371Z,20.29
2018-07-04T08:47:17.470Z,20.34
2018-07-04T08:50:02.460Z,20.40
2018-07-04T08:52:47.494Z,20.43
2018-07-04T08:55:32.526Z,20.47
2018-07-04T08:58:17.669Z,20.50
2018-07-04T09:01:02.771Z,20.54
2018-07-04T09:03:48.793Z,20.58
2018-07-04T09:06:33.972Z,20.65
2018-07-04T09:09:18.878Z,20.69
2018-07-04T09:12:03.663Z,20.74
2018-07-04T09:14:48.714Z,20.77
2018-07-04T09:17:33.501Z,20.80
2018-07-04T09:20:18.654Z,20.83
2018-07-04T09:23:03.817Z,20.86
2018-07-04T09:25:48.766Z,20.93
2018-07-04T09:28:33.697Z,20.99
2018-07-04T09:31:18.673Z,21.06
2018-07-04T09:34:03.531Z,21.13
2018-07-04T09:36:48.791Z,21.19
2018-07-04T09:39:33.700Z,21.23
2018-07-04T09:42:18.639Z,21.25
2018-07-04T09:45:03.529Z,21.26
2018-07-04T09:47:48.462Z,21.28
2018-07-04T09:50:33.350Z,21.30
2018-07-04T09:53:18.373Z,21.32
2018-07-04T09:56:03.315Z,21.35
2018-07-04T09:58:48.297Z,21.38
2018-07-04T10:01:33.385Z,21.39
2018-07-04T10:04:18.392Z,21.42
2018-07-04T10:07:03.532Z,21.43
2018-07-04T10:09:48.588Z,21.47
2018-07-04T10:12:33.576Z,21.53
2018-07-04T10:15:18.543Z,21.56
2018-07-04T10:18:03.393Z,21.60
2018-07-04T10:20:48.540Z,21.63
2018-07-04T10:23:33.484Z,21.64
2018-07-04T10:26:18.413Z,21.65
2018-07-04T10:29:03.353Z,21.65
2018-07-04T10:31:48.266Z,21.65
2018-07-04T10:34:33.252Z,21.64
2018-07-04T10:37:18.446Z,21.60
2018-07-04T10:40:03.385Z,21.56
2018-07-04T10:42:48.369Z,21.51
2018-07-04T10:45:33.451Z,21.44
2018-07-04T10:48:18.357Z,21.38
2018-07-04T10:51:03.734Z,21.30
2018-07-04T10:53:48.569Z,21.24
2018-07-04T10:56:33.499Z,21.18
2018-07-04T10:59:18.668Z,21.11
2018-07-04T11:02:03.662Z,21.04
2018-07-04T11:04:48.452Z,20.96
2018-07-04T11:07:33.507Z,20.85
2018-07-04T11:10:20.546Z,20.74
2018-07-04T11:13:05.809Z,20.66
2018-07-04T11:15:51.748Z,20.57
2018-07-04T11:18:36.689Z,20.48
2018-07-04T11:21:21.930Z,20.39
2018-07-04T11:24:07.508Z,20.31
2018-07-04T11:26:52.728Z,20.26
2018-07-04T11:29:37.732Z,20.19
2018-07-04T11:32:23.315Z,20.15
2018-07-04T11:35:08.087Z,20.13
2018-07-04T11:37:53.184Z,20.21
2018-07-04T11:40:38.190Z,20.35
2018-07-04T11:43:23.338Z,20.48
2018-07-04T11:45:59.711Z,20.61
2018-07-04T11:48:26.302Z,20.73
2018-07-04T11:50:53.529Z,20.86
2018-07-04T11:53:20.018Z,20.97
2018-07-04T11:55:46.457Z,21.09
2018-07-04T11:58:13.216Z,21.19
2018-07-04T12:00:39.626Z,21.28
2018-07-04T12:03:13.561Z,21.32
2018-07-04T12:05:52.578Z,21.31
2018-07-04T12:08:25.232Z,21.25
2018-07-04T12:10:52.065Z,21.20
2018-07-04T12:13:19.514Z,21.16
2018-07-04T12:15:46.509Z,21.10
2018-07-04T12:18:13.367Z,20.98
2018-07-04T12:20:40.258Z,20.80
2018-07-04T12:23:06.734Z,20.65
2018-07-04T12:25:33.162Z,20.51
2018-07-04T12:27:59.550Z,20.35
2018-07-04T12:30:26.042Z,20.23
2018-07-04T12:32:52.447Z,20.09
2018-07-04T12:35:19.012Z,19.97
2018-07-04T12:37:45.436Z,19.88
2018-07-04T12:40:12.003Z,19.78
2018-07-04T12:42:38.380Z,19.69
2018-07-04T12:45:04.926Z,19.61
2018-07-04T12:47:31.519Z,19.54
2018-07-04T12:49:57.913Z,19.48
2018-07-04T12:52:24.527Z,19.41
2018-07-04T12:55:05.695Z,19.36
2018-07-04T12:57:50.791Z,19.25
2018-07-04T13:00:35.796Z,19.16
2018-07-04T13:03:21.227Z,19.05
2018-07-04T13:06:06.160Z,18.97
2018-07-04T13:08:51.812Z,18.92
2018-07-04T13:11:36.597Z,18.87
2018-07-04T13:14:21.547Z,18.82
2018-07-04T13:17:06.551Z,18.77
2018-07-04T13:19:51.572Z,18.70
2018-07-04T13:22:36.466Z,18.65
2018-07-04T13:25:22.509Z,18.61
2018-07-04T13:28:07.327Z,18.55
2018-07-04T13:30:52.466Z,18.50
2018-07-04T13:33:37.478Z,18.47
2018-07-04T13:36:22.519Z,18.45
2018-07-04T13:39:07.346Z,18.45
2018-07-04T13:41:52.707Z,18.43
2018-07-04T13:44:37.745Z,18.43
2018-07-04T13:47:22.837Z,18.41
2018-07-04T13:50:07.634Z,18.42
2018-07-04T13:52:52.651Z,18.43
2018-07-04T13:55:37.559Z,18.44
2018-07-04T13:58:22.498Z,18.45
2018-07-04T14:01:07.336Z,18.46
2018-07-04T14:03:52.715Z,18.49
2018-07-04T14:06:37.707Z,18.52
2018-07-04T14:09:22.803Z,18.53
2018-07-04T14:12:07.660Z,18.56
2018-07-04T14:14:53.662Z,18.60
2018-07-04T14:17:38.548Z,18.07
2018-07-04T14:20:24.286Z,18.65
2018-07-04T14:23:09.266Z,18.64
2018-07-04T14:25:54.205Z,18.63
2018-07-04T14:28:39.093Z,18.62
2018-07-04T14:31:24.179Z,18.62
2018-07-04T14:34:09.092Z,18.61
2018-07-04T14:36:54.411Z,18.61
2018-07-04T14:39:39.331Z,18.59
2018-07-04T14:42:24.298Z,18.58
2018-07-04T14:45:09.204Z,17.88
2018-07-04T14:47:54.260Z,18.51
2018-07-04T14:50:39.203Z,18.47
2018-07-04T14:53:24.361Z,18.46
2018-07-04T14:56:09.225Z,18.45
2018-07-04T14:58:54.236Z,18.43
2018-07-04T15:01:39.616Z,18.41
2018-07-04T15:04:24.745Z,18.40
2018-07-04T15:07:09.836Z,18.37
2018-07-04T15:09:55.113Z,18.37
2018-07-04T15:12:39.995Z,18.34
2018-07-04T15:15:24.980Z,18.30
2018-07-04T15:18:09.863Z,18.28
2018-07-04T15:20:55.053Z,18.24
2018-07-04T15:23:40.023Z,18.22
2018-07-04T15:26:24.945Z,18.21
2018-07-04T15:29:09.953Z,18.20
2018-07-04T15:31:54.989Z,18.16
2018-07-04T15:34:39.856Z,18.13
2018-07-04T15:37:24.958Z,18.13
2018-07-04T15:40:10.881Z,18.12
2018-07-04T15:42:55.931Z,18.10
2018-07-04T15:45:40.805Z,18.07
2018-07-04T15:48:25.864Z,18.06
2018-07-04T15:51:10.868Z,18.06
2018-07-04T15:53:56.164Z,18.08
2018-07-04T15:56:41.156Z,18.06
2018-07-04T15:59:26.276Z,18.04
2018-07-04T16:02:10.977Z,18.02
2018-07-04T16:04:56.051Z,18.00
2018-07-04T16:07:41.030Z,17.97
2018-07-04T16:10:26.135Z,17.94
2018-07-04T16:13:10.880Z,17.93
2018-07-04T16:15:56.020Z,17.91
2018-07-04T16:18:40.833Z,17.90
2018-07-04T16:21:25.852Z,17.90
2018-07-04T16:24:10.829Z,17.90
2018-07-04T16:26:56.132Z,17.89
2018-07-04T16:29:40.986Z,17.88
2018-07-04T16:32:26.308Z,17.86
2018-07-04T16:35:11.113Z,17.86
2018-07-04T16:37:56.094Z,17.85
2018-07-04T16:40:40.978Z,17.84
2018-07-04T16:43:26.188Z,17.83
2018-07-04T16:46:11.125Z,17.83
2018-07-04T16:48:56.409Z,17.85
2018-07-04T16:51:41.246Z,17.86
2018-07-04T16:54:26.337Z,17.86
2018-07-04T16:57:11.425Z,17.88
2018-07-04T16:59:56.596Z,17.92
2018-07-04T17:02:41.470Z,17.95
2018-07-04T17:05:26.825Z,17.99
2018-07-04T17:08:11.721Z,18.02
2018-07-04T17:10:56.549Z,18.04
2018-07-04T17:13:41.522Z,18.06
2018-07-04T17:16:26.772Z,18.08
2018-07-04T17:19:11.670Z,18.10
2018-07-04T17:21:56.638Z,18.11
2018-07-04T17:24:41.557Z,18.12
2018-07-04T17:27:26.633Z,18.14
2018-07-04T17:30:11.342Z,18.16
2018-07-04T17:32:56.459Z,18.15
2018-07-04T17:35:41.597Z,18.16
2018-07-04T17:38:26.637Z,18.16
2018-07-04T17:41:11.668Z,18.18
2018-07-04T17:43:56.772Z,18.19
2018-07-04T17:46:41.969Z,18.22
2018-07-04T17:49:27.047Z,18.26
2018-07-04T17:52:12.068Z,18.29
2018-07-04T17:54:56.909Z,18.32
2018-07-04T17:57:41.952Z,18.35
2018-07-04T18:00:26.952Z,18.35
2018-07-04T18:03:12.358Z,18.38
2018-07-04T18:05:58.111Z,18.39
2018-07-04T18:08:42.799Z,18.41
2018-07-04T18:11:27.689Z,18.42
2018-07-04T18:14:12.665Z,18.44
2018-07-04T18:16:57.739Z,18.45
2018-07-04T18:19:42.684Z,18.46
2018-07-04T18:22:28.894Z,18.47
2018-07-04T18:25:13.883Z,18.46
2018-07-04T18:27:58.947Z,18.47
2018-07-04T18:30:43.834Z,18.46
2018-07-04T18:33:28.906Z,18.47
2018-07-04T18:36:13.728Z,18.46
2018-07-04T18:38:58.827Z,18.47
2018-07-04T18:41:43.652Z,18.47
2018-07-04T18:44:28.661Z,18.45
2018-07-04T18:47:13.498Z,18.45
2018-07-04T18:49:58.433Z,18.44
2018-07-04T18:52:43.448Z,18.43
2018-07-04T18:55:28.402Z,18.45
2018-07-04T18:58:13.299Z,18.43
2018-07-04T19:00:58.402Z,18.42
2018-07-04T19:03:43.215Z,18.42
2018-07-04T19:06:28.310Z,18.41
2018-07-04T19:09:13.090Z,18.40
2018-07-04T19:11:58.110Z,18.40
2018-07-04T19:14:43.151Z,18.39
2018-07-04T19:17:27.986Z,18.40
2018-07-04T19:20:13.095Z,18.41
2018-07-04T19:22:58.271Z,18.39
2018-07-04T19:25:43.343Z,18.37
2018-07-04T19:28:28.320Z,18.38
2018-07-04T19:31:13.210Z,18.39
2018-07-04T19:33:58.254Z,18.37
2018-07-04T19:36:43.105Z,18.37
2018-07-04T19:39:28.272Z,18.37
2018-07-04T19:42:13.395Z,18.36
2018-07-04T19:44:58.177Z,18.36
2018-07-04T19:47:43.256Z,18.35
2018-07-04T19:50:28.172Z,18.32
2018-07-04T19:53:13.174Z,18.29
2018-07-04T19:55:58.232Z,18.26
2018-07-04T19:58:43.080Z,18.20
2018-07-04T20:01:28.086Z,18.16
2018-07-04T20:04:12.987Z,18.13
2018-07-04T20:06:58.233Z,18.09
2018-07-04T20:09:43.082Z,18.05
2018-07-04T20:12:28.241Z,18.01
2018-07-04T20:15:12.990Z,17.97
2018-07-04T20:17:57.925Z,17.93
2018-07-04T20:20:42.698Z,17.89
2018-07-04T20:23:27.756Z,17.88
2018-07-04T20:26:12.812Z,17.86
2018-07-04T20:28:57.635Z,17.84
2018-07-04T20:31:42.462Z,17.81
2018-07-04T20:34:27.600Z,17.78
2018-07-04T20:37:12.650Z,17.78
2018-07-04T20:39:57.811Z,17.75
2018-07-04T20:42:42.784Z,17.71
2018-07-04T20:45:27.815Z,17.69
2018-07-04T20:48:12.659Z,17.66
2018-07-04T20:50:57.693Z,17.61
2018-07-04T20:53:42.805Z,17.57
2018-07-04T20:56:27.687Z,17.53
2018-07-04T20:59:12.626Z,17.51
2018-07-04T21:01:58.279Z,17.49
2018-07-04T21:04:43.150Z,17.47
2018-07-04T21:07:28.243Z,17.44
2018-07-04T21:10:13.143Z,17.40
2018-07-04T21:12:58.502Z,17.37
2018-07-04T21:15:43.318Z,17.35
2018-07-04T21:18:28.282Z,17.33
2018-07-04T21:21:13.231Z,17.29
2018-07-04T21:23:58.575Z,17.25
2018-07-04T21:26:43.482Z,17.23
2018-07-04T21:29:28.540Z,17.21
2018-07-04T21:32:13.427Z,17.20
2018-07-04T21:34:58.512Z,17.19
2018-07-04T21:37:43.445Z,17.19
2018-07-04T21:40:28.616Z,17.18
2018-07-04T21:43:13.457Z,17.18
2018-07-04T21:45:58.618Z,17.17
2018-07-04T21:48:43.825Z,17.17
2018-07-04T21:51:28.771Z,17.17
2018-07-04T21:54:13.699Z,17.16
2018-07-04T21:56:58.746Z,17.14
2018-07-04T21:59:43.557Z,17.13
2018-07-04T22:02:28.502Z,17.12
2018-07-04T22:05:13.572Z,17.10
2018-07-04T22:07:58.733Z,17.07
2018-07-04T22:10:43.666Z,17.06
2018-07-04T22:13:28.680Z,17.05
2018-07-04T22:16:13.547Z,17.04
2018-07-04T22:18:58.596Z,16.99
2018-07-04T22:21:43.470Z,16.97
2018-07-04T22:24:28.571Z,16.94
2018-07-04T22:27:13.560Z,16.92
2018-07-04T22:29:58.458Z,16.92
2018-07-04T22:32:43.422Z,16.91
2018-07-04T22:35:28.524Z,16.91
2018-07-04T22:38:13.474Z,16.90
2018-07-04T22:40:58.384Z,16.90
2018-07-04T22:43:43.513Z,16.90
2018-07-04T22:46:28.415Z,16.90
2018-07-04T22:49:13.304Z,16.87
2018-07-04T22:51:58.983Z,16.87
2018-07-04T22:54:43.897Z,16.87
2018-07-04T22:57:29.016Z,16.86
2018-07-04T23:00:13.839Z,16.86
2018-07-04T23:02:58.832Z,16.85
2018-07-04T23:05:43.767Z,16.84
2018-07-04T23:08:28.895Z,16.83
2018-07-04T23:11:13.771Z,16.82
2018-07-04T23:13:58.817Z,16.80
2018-07-04T23:16:43.617Z,16.77
2018-07-04T23:19:28.643Z,16.76
2018-07-04T23:22:13.523Z,16.75
2018-07-04T23:24:58.665Z,16.74
2018-07-04T23:27:43.685Z,16.74
2018-07-04T23:30:28.711Z,16.72
2018-07-04T23:33:13.501Z,16.72
2018-07-04T23:35:58.691Z,16.71
2018-07-04T23:38:43.719Z,16.71
2018-07-04T23:41:29.685Z,16.69
2018-07-04T23:44:14.631Z,16.68
2018-07-04T23:46:59.747Z,16.67
2018-07-04T23:49:44.538Z,16.66
2018-07-04T23:52:29.787Z,16.63
2018-07-04T23:55:14.768Z,16.61
2018-07-04T23:57:59.929Z,16.60
